THT55 BGBW-BGGH
Flight info
| Callsign | THT55 |
|---|---|
| Flight time | 0h 58m |
| Altitude | 28000 |
| Route | OVEDA Y26 NUKRI |
| Aircraft | A320/M-SDE3FGHIRWY/LB1 |
Departure
| Time | 2026-04-27 01:57 |
|---|---|
| Airport | Narsarsuaq Airport (BGBW) |
Arrival
| Time | 2026-04-27 02:55 |
|---|---|
| Airport | Nuuk International Airport (BGGH) |
| Time | Latitude | Longitude | Altitude | Speed | Heading |
|---|---|---|---|---|---|
| 2026-04-27 01:08 | 61.16200 | -45.41856 | 71 ft | 0 kts | 17° |
| 2026-04-27 01:44 | 61.16201 | -45.41855 | 66 ft | 1 kts | 17° |
| 2026-04-27 01:44 | 61.16205 | -45.41853 | 65 ft | 2 kts | 18° |
| 2026-04-27 01:44 | 61.16224 | -45.41829 | 71 ft | 0 kts | 32° |
| 2026-04-27 01:44 | 61.16233 | -45.41821 | 66 ft | 2 kts | 15° |
| 2026-04-27 01:45 | 61.16249 | -45.41853 | 70 ft | 5 kts | 297° |
| 2026-04-27 01:45 | 61.16252 | -45.41867 | 68 ft | 0 kts | 297° |
| 2026-04-27 01:52 | 61.16253 | -45.41871 | 68 ft | 1 kts | 295° |
| 2026-04-27 01:52 | 61.16251 | -45.41900 | 71 ft | 4 kts | 264° |
| 2026-04-27 01:52 | 61.16258 | -45.41968 | 68 ft | 6 kts | 301° |
| 2026-04-27 01:53 | 61.16287 | -45.42037 | 73 ft | 5 kts | 323° |
| 2026-04-27 01:53 | 61.16295 | -45.42050 | 76 ft | 0 kts | 322° |
| 2026-04-27 01:53 | 61.16314 | -45.42073 | 88 ft | 1 kts | 335° |
| 2026-04-27 01:53 | 61.16322 | -45.42080 | 88 ft | 0 kts | 338° |
| 2026-04-27 01:54 | 61.16342 | -45.42081 | 86 ft | 5 kts | 9° |
| 2026-04-27 01:54 | 61.16376 | -45.42030 | 85 ft | 8 kts | 38° |
| 2026-04-27 01:54 | 61.16425 | -45.41945 | 88 ft | 10 kts | 41° |
| 2026-04-27 01:54 | 61.16462 | -45.41879 | 87 ft | 11 kts | 39° |
| 2026-04-27 01:55 | 61.16551 | -45.41727 | 89 ft | 13 kts | 39° |
| 2026-04-27 01:55 | 61.16602 | -45.41610 | 93 ft | 5 kts | 18° |
| 2026-04-27 01:55 | 61.16602 | -45.41639 | 92 ft | 3 kts | 236° |
| 2026-04-27 01:55 | 61.16575 | -45.41688 | 91 ft | 3 kts | 221° |
| 2026-04-27 01:56 | 61.16574 | -45.41688 | 91 ft | 0 kts | 220° |
| 2026-04-27 01:57 | 61.16363 | -45.42055 | 86 ft | 88 kts | 220° |
| 2026-04-27 01:57 | 61.15691 | -45.43031 | 387 ft | 127 kts | 205° |
| 2026-04-27 01:57 | 61.14909 | -45.43856 | 1221 ft | 134 kts | 207° |
| 2026-04-27 01:57 | 61.14036 | -45.44799 | 1922 ft | 151 kts | 205° |
| 2026-04-27 01:58 | 61.13037 | -45.45801 | 2381 ft | 170 kts | 204° |
| 2026-04-27 01:58 | 61.11933 | -45.46837 | 2705 ft | 191 kts | 204° |
| 2026-04-27 01:58 | 61.10633 | -45.48035 | 3178 ft | 217 kts | 204° |
| 2026-04-27 01:58 | 61.09185 | -45.49322 | 3739 ft | 240 kts | 204° |
| 2026-04-27 01:59 | 61.07615 | -45.50702 | 4691 ft | 249 kts | 204° |
| 2026-04-27 01:59 | 61.06003 | -45.52131 | 5705 ft | 253 kts | 204° |
| 2026-04-27 01:59 | 61.04372 | -45.53592 | 6651 ft | 257 kts | 204° |
| 2026-04-27 01:59 | 61.02724 | -45.55083 | 7589 ft | 261 kts | 204° |
| 2026-04-27 02:00 | 61.01051 | -45.56610 | 8539 ft | 264 kts | 204° |
| 2026-04-27 02:00 | 60.99379 | -45.58145 | 9457 ft | 268 kts | 204° |
| 2026-04-27 02:00 | 60.97659 | -45.59719 | 10225 ft | 276 kts | 204° |
| 2026-04-27 02:00 | 60.95826 | -45.61380 | 10538 ft | 299 kts | 204° |
| 2026-04-27 02:01 | 60.93844 | -45.63177 | 10769 ft | 322 kts | 204° |
| 2026-04-27 02:01 | 60.91745 | -45.65087 | 10944 ft | 345 kts | 204° |
| 2026-04-27 02:01 | 60.89476 | -45.67163 | 11191 ft | 363 kts | 204° |
| 2026-04-27 02:01 | 60.87139 | -45.69293 | 11805 ft | 370 kts | 204° |
| 2026-04-27 02:02 | 60.84770 | -45.71434 | 12515 ft | 373 kts | 204° |
| 2026-04-27 02:02 | 60.82403 | -45.73545 | 13223 ft | 377 kts | 204° |
| 2026-04-27 02:02 | 60.79960 | -45.75604 | 13771 ft | 383 kts | 206° |
| 2026-04-27 02:02 | 60.77364 | -45.77189 | 14236 ft | 390 kts | 204° |
| 2026-04-27 02:03 | 60.74732 | -45.78730 | 14793 ft | 395 kts | 201° |
| 2026-04-27 02:03 | 60.72079 | -45.80275 | 15276 ft | 399 kts | 200° |
| 2026-04-27 02:03 | 60.69435 | -45.81860 | 15810 ft | 403 kts | 201° |
| 2026-04-27 02:03 | 60.66719 | -45.83399 | 16337 ft | 407 kts | 201° |
| 2026-04-27 02:04 | 60.63985 | -45.85075 | 16866 ft | 411 kts | 202° |
| 2026-04-27 02:04 | 60.61213 | -45.86660 | 17427 ft | 416 kts | 201° |
| 2026-04-27 02:04 | 60.58416 | -45.88309 | 17904 ft | 420 kts | 201° |
| 2026-04-27 02:04 | 60.55587 | -45.89945 | 18385 ft | 423 kts | 201° |
| 2026-04-27 02:05 | 60.52867 | -45.92110 | 18831 ft | 418 kts | 214° |
| 2026-04-27 02:05 | 60.50604 | -45.95584 | 19287 ft | 412 kts | 229° |
| 2026-04-27 02:05 | 60.48896 | -46.00227 | 19706 ft | 408 kts | 244° |
| 2026-04-27 02:05 | 60.47910 | -46.05563 | 20186 ft | 404 kts | 259° |
| 2026-04-27 02:06 | 60.47666 | -46.11251 | 20572 ft | 405 kts | 274° |
| 2026-04-27 02:06 | 60.48186 | -46.16823 | 20921 ft | 409 kts | 288° |
| 2026-04-27 02:06 | 60.49464 | -46.22008 | 21264 ft | 415 kts | 303° |
| 2026-04-27 02:06 | 60.51447 | -46.26336 | 21681 ft | 422 kts | 318° |
| 2026-04-27 02:07 | 60.53980 | -46.29411 | 22119 ft | 429 kts | 332° |
| 2026-04-27 02:07 | 60.56741 | -46.31790 | 22512 ft | 432 kts | 334° |
| 2026-04-27 02:07 | 60.59531 | -46.34163 | 22827 ft | 435 kts | 333° |
| 2026-04-27 02:07 | 60.62307 | -46.36518 | 23186 ft | 437 kts | 334° |
| 2026-04-27 02:08 | 60.65120 | -46.38906 | 23470 ft | 440 kts | 334° |
| 2026-04-27 02:08 | 60.67947 | -46.41314 | 23833 ft | 441 kts | 333° |
| 2026-04-27 02:08 | 60.70789 | -46.43750 | 24153 ft | 444 kts | 334° |
| 2026-04-27 02:08 | 60.73636 | -46.46201 | 24552 ft | 443 kts | 334° |
| 2026-04-27 02:09 | 60.76454 | -46.48637 | 24896 ft | 445 kts | 334° |
| 2026-04-27 02:09 | 60.79318 | -46.51129 | 25219 ft | 447 kts | 334° |
| 2026-04-27 02:09 | 60.82178 | -46.53620 | 25579 ft | 447 kts | 334° |
| 2026-04-27 02:09 | 60.85056 | -46.56123 | 26044 ft | 446 kts | 334° |
| 2026-04-27 02:10 | 60.87884 | -46.58584 | 26484 ft | 445 kts | 334° |
| 2026-04-27 02:10 | 60.90725 | -46.61059 | 26965 ft | 444 kts | 334° |
| 2026-04-27 02:10 | 60.93572 | -46.63547 | 27311 ft | 444 kts | 334° |
| 2026-04-27 02:10 | 60.96419 | -46.66041 | 27389 ft | 441 kts | 334° |
| 2026-04-27 02:11 | 60.99237 | -46.68510 | 27393 ft | 439 kts | 334° |
| 2026-04-27 02:11 | 61.02052 | -46.70982 | 27414 ft | 438 kts | 334° |
| 2026-04-27 02:11 | 61.04809 | -46.73408 | 27392 ft | 435 kts | 334° |
| 2026-04-27 02:11 | 61.07590 | -46.75858 | 27408 ft | 434 kts | 334° |
| 2026-04-27 02:12 | 61.10371 | -46.78311 | 27411 ft | 434 kts | 334° |
| 2026-04-27 02:12 | 61.13153 | -46.80771 | 27412 ft | 434 kts | 334° |
| 2026-04-27 02:12 | 61.15801 | -46.83707 | 27408 ft | 430 kts | 324° |
| 2026-04-27 02:12 | 61.18240 | -46.87170 | 27409 ft | 430 kts | 323° |
| 2026-04-27 02:13 | 61.20708 | -46.90697 | 27430 ft | 430 kts | 323° |
| 2026-04-27 02:13 | 61.23166 | -46.94233 | 27428 ft | 430 kts | 323° |
| 2026-04-27 02:13 | 61.25627 | -46.97783 | 27429 ft | 430 kts | 323° |
| 2026-04-27 02:13 | 61.28087 | -47.01340 | 27428 ft | 430 kts | 323° |
| 2026-04-27 02:14 | 61.30537 | -47.04888 | 27482 ft | 429 kts | 323° |
| 2026-04-27 02:14 | 61.32955 | -47.08393 | 27487 ft | 428 kts | 323° |
| 2026-04-27 02:14 | 61.35397 | -47.11940 | 27495 ft | 426 kts | 323° |
| 2026-04-27 02:14 | 61.37837 | -47.15489 | 27513 ft | 427 kts | 323° |
| 2026-04-27 02:15 | 61.40278 | -47.19049 | 27492 ft | 428 kts | 323° |
| 2026-04-27 02:15 | 61.42699 | -47.22590 | 27470 ft | 429 kts | 323° |
| 2026-04-27 02:15 | 61.45152 | -47.26186 | 27462 ft | 430 kts | 323° |
| 2026-04-27 02:15 | 61.47601 | -47.29784 | 27460 ft | 430 kts | 323° |
| 2026-04-27 02:16 | 61.50055 | -47.33385 | 27489 ft | 431 kts | 323° |
| 2026-04-27 02:16 | 61.52513 | -47.36994 | 27489 ft | 431 kts | 323° |
| 2026-04-27 02:16 | 61.54983 | -47.40621 | 27492 ft | 432 kts | 323° |
| 2026-04-27 02:16 | 61.57407 | -47.44192 | 27512 ft | 431 kts | 323° |
| 2026-04-27 02:17 | 61.59867 | -47.47824 | 27513 ft | 431 kts | 323° |
| 2026-04-27 02:17 | 61.62323 | -47.51455 | 27539 ft | 431 kts | 323° |
| 2026-04-27 02:17 | 61.64781 | -47.55108 | 27539 ft | 431 kts | 323° |
| 2026-04-27 02:17 | 61.67231 | -47.58758 | 27537 ft | 430 kts | 323° |
| 2026-04-27 02:18 | 61.69671 | -47.62396 | 27538 ft | 430 kts | 323° |
| 2026-04-27 02:18 | 61.72118 | -47.66048 | 27558 ft | 430 kts | 323° |
| 2026-04-27 02:18 | 61.74542 | -47.69674 | 27557 ft | 430 kts | 323° |
| 2026-04-27 02:18 | 61.76983 | -47.73332 | 27538 ft | 430 kts | 323° |
| 2026-04-27 02:19 | 61.79419 | -47.76999 | 27539 ft | 430 kts | 323° |
| 2026-04-27 02:19 | 61.81855 | -47.80672 | 27581 ft | 429 kts | 323° |
| 2026-04-27 02:19 | 61.84281 | -47.84339 | 27585 ft | 428 kts | 323° |
| 2026-04-27 02:19 | 61.86710 | -47.88017 | 27585 ft | 427 kts | 323° |
| 2026-04-27 02:20 | 61.89119 | -47.91665 | 27584 ft | 426 kts | 323° |
| 2026-04-27 02:20 | 61.91525 | -47.95313 | 27581 ft | 425 kts | 323° |
| 2026-04-27 02:20 | 61.93929 | -47.98961 | 27607 ft | 424 kts | 323° |
| 2026-04-27 02:20 | 61.96329 | -48.02620 | 27600 ft | 424 kts | 323° |
| 2026-04-27 02:21 | 61.98697 | -48.06242 | 27603 ft | 424 kts | 323° |
| 2026-04-27 02:21 | 62.01122 | -48.09959 | 27599 ft | 423 kts | 323° |
| 2026-04-27 02:21 | 62.03480 | -48.13579 | 27628 ft | 423 kts | 323° |
| 2026-04-27 02:21 | 62.05876 | -48.17252 | 27624 ft | 423 kts | 323° |
| 2026-04-27 02:22 | 62.08269 | -48.20929 | 27636 ft | 422 kts | 323° |
| 2026-04-27 02:22 | 62.10648 | -48.24601 | 27642 ft | 421 kts | 323° |
| 2026-04-27 02:22 | 62.12988 | -48.28226 | 27680 ft | 420 kts | 323° |
| 2026-04-27 02:22 | 62.15357 | -48.31899 | 27660 ft | 419 kts | 323° |
| 2026-04-27 02:23 | 62.17714 | -48.35558 | 27658 ft | 418 kts | 323° |
| 2026-04-27 02:23 | 62.20070 | -48.39217 | 27656 ft | 417 kts | 323° |
| 2026-04-27 02:23 | 62.22420 | -48.42877 | 27653 ft | 417 kts | 323° |
| 2026-04-27 02:23 | 62.24767 | -48.46544 | 27685 ft | 416 kts | 323° |
| 2026-04-27 02:24 | 62.27081 | -48.50163 | 27680 ft | 416 kts | 323° |
| 2026-04-27 02:24 | 62.29414 | -48.53822 | 27676 ft | 416 kts | 323° |
| 2026-04-27 02:24 | 62.31758 | -48.57505 | 27672 ft | 416 kts | 323° |
| 2026-04-27 02:24 | 62.34106 | -48.61197 | 27733 ft | 419 kts | 323° |
| 2026-04-27 02:25 | 62.36467 | -48.64911 | 27729 ft | 421 kts | 323° |
| 2026-04-27 02:25 | 62.38838 | -48.68647 | 27717 ft | 421 kts | 323° |
| 2026-04-27 02:25 | 62.41200 | -48.72378 | 27713 ft | 421 kts | 323° |
| 2026-04-27 02:25 | 62.43535 | -48.76078 | 27706 ft | 421 kts | 322° |
| 2026-04-27 02:26 | 62.45898 | -48.79831 | 27734 ft | 421 kts | 322° |
| 2026-04-27 02:26 | 62.48258 | -48.83588 | 27730 ft | 421 kts | 322° |
| 2026-04-27 02:26 | 62.50617 | -48.87355 | 27727 ft | 421 kts | 322° |
| 2026-04-27 02:26 | 62.52975 | -48.91132 | 27716 ft | 421 kts | 322° |
| 2026-04-27 02:27 | 62.55333 | -48.94918 | 27748 ft | 421 kts | 322° |
| 2026-04-27 02:27 | 62.57686 | -48.98700 | 27746 ft | 421 kts | 322° |
| 2026-04-27 02:27 | 62.60009 | -49.02438 | 27722 ft | 421 kts | 322° |
| 2026-04-27 02:27 | 62.62368 | -49.06242 | 27462 ft | 422 kts | 322° |
| 2026-04-27 02:28 | 62.64725 | -49.10045 | 27197 ft | 422 kts | 322° |
| 2026-04-27 02:28 | 62.67082 | -49.13855 | 26965 ft | 422 kts | 322° |
| 2026-04-27 02:28 | 62.69442 | -49.17676 | 26706 ft | 422 kts | 322° |
| 2026-04-27 02:28 | 62.71800 | -49.21501 | 26452 ft | 423 kts | 322° |
| 2026-04-27 02:29 | 62.74156 | -49.25333 | 26202 ft | 423 kts | 322° |
| 2026-04-27 02:29 | 62.76486 | -49.29146 | 25946 ft | 423 kts | 322° |
| 2026-04-27 02:29 | 62.78844 | -49.33014 | 25707 ft | 423 kts | 322° |
| 2026-04-27 02:29 | 62.81203 | -49.36882 | 25468 ft | 423 kts | 322° |
| 2026-04-27 02:30 | 62.83562 | -49.40752 | 25214 ft | 424 kts | 322° |
| 2026-04-27 02:30 | 62.85921 | -49.44626 | 24989 ft | 423 kts | 322° |
| 2026-04-27 02:30 | 62.88267 | -49.48478 | 24755 ft | 420 kts | 323° |
| 2026-04-27 02:30 | 62.90601 | -49.52339 | 24516 ft | 419 kts | 322° |
| 2026-04-27 02:31 | 62.92846 | -49.56306 | 24277 ft | 419 kts | 320° |
| 2026-04-27 02:31 | 62.95060 | -49.60474 | 24032 ft | 419 kts | 319° |
| 2026-04-27 02:31 | 62.97246 | -49.64727 | 23830 ft | 419 kts | 319° |
| 2026-04-27 02:31 | 62.99415 | -49.68998 | 23593 ft | 417 kts | 318° |
| 2026-04-27 02:32 | 63.01591 | -49.73274 | 23356 ft | 416 kts | 319° |
| 2026-04-27 02:32 | 63.03726 | -49.77437 | 23075 ft | 414 kts | 319° |
| 2026-04-27 02:32 | 63.05889 | -49.81610 | 22801 ft | 412 kts | 319° |
| 2026-04-27 02:32 | 63.08059 | -49.85770 | 22516 ft | 410 kts | 319° |
| 2026-04-27 02:33 | 63.10214 | -49.89891 | 22231 ft | 407 kts | 319° |
| 2026-04-27 02:33 | 63.12317 | -49.93927 | 21955 ft | 402 kts | 320° |
| 2026-04-27 02:33 | 63.14420 | -49.97983 | 21687 ft | 397 kts | 320° |
| 2026-04-27 02:33 | 63.16487 | -50.01984 | 21417 ft | 394 kts | 319° |
| 2026-04-27 02:34 | 63.18543 | -50.05980 | 21147 ft | 391 kts | 320° |
| 2026-04-27 02:34 | 63.20584 | -50.09947 | 20882 ft | 389 kts | 319° |
| 2026-04-27 02:34 | 63.22612 | -50.13900 | 20612 ft | 386 kts | 320° |
| 2026-04-27 02:34 | 63.24632 | -50.17846 | 20336 ft | 384 kts | 320° |
| 2026-04-27 02:35 | 63.26610 | -50.21717 | 20098 ft | 382 kts | 320° |
| 2026-04-27 02:35 | 63.28606 | -50.25627 | 19859 ft | 380 kts | 320° |
| 2026-04-27 02:35 | 63.30580 | -50.29506 | 19603 ft | 378 kts | 320° |
| 2026-04-27 02:35 | 63.32542 | -50.33366 | 19345 ft | 375 kts | 320° |
| 2026-04-27 02:36 | 63.34499 | -50.37223 | 19137 ft | 377 kts | 319° |
| 2026-04-27 02:36 | 63.36458 | -50.41097 | 18888 ft | 383 kts | 320° |
| 2026-04-27 02:36 | 63.38465 | -50.45078 | 18634 ft | 381 kts | 320° |
| 2026-04-27 02:36 | 63.40416 | -50.48954 | 18396 ft | 379 kts | 320° |
| 2026-04-27 02:37 | 63.42383 | -50.52848 | 18135 ft | 377 kts | 320° |
| 2026-04-27 02:37 | 63.44343 | -50.56740 | 17855 ft | 376 kts | 320° |
| 2026-04-27 02:37 | 63.46299 | -50.60633 | 17580 ft | 375 kts | 320° |
| 2026-04-27 02:37 | 63.48248 | -50.64525 | 17289 ft | 375 kts | 320° |
| 2026-04-27 02:38 | 63.50187 | -50.68406 | 17003 ft | 373 kts | 320° |
| 2026-04-27 02:38 | 63.52088 | -50.72225 | 16477 ft | 370 kts | 320° |
| 2026-04-27 02:38 | 63.53992 | -50.76059 | 15647 ft | 365 kts | 320° |
| 2026-04-27 02:38 | 63.55863 | -50.79832 | 14899 ft | 357 kts | 320° |
| 2026-04-27 02:39 | 63.57704 | -50.83542 | 14151 ft | 354 kts | 320° |
| 2026-04-27 02:39 | 63.59532 | -50.87222 | 13422 ft | 352 kts | 320° |
| 2026-04-27 02:39 | 63.61336 | -50.90865 | 12729 ft | 345 kts | 320° |
| 2026-04-27 02:39 | 63.63102 | -50.94451 | 12070 ft | 336 kts | 320° |
| 2026-04-27 02:40 | 63.64820 | -50.97946 | 11472 ft | 329 kts | 321° |
| 2026-04-27 02:40 | 63.66465 | -51.01296 | 11176 ft | 313 kts | 321° |
| 2026-04-27 02:40 | 63.68029 | -51.04486 | 11029 ft | 293 kts | 321° |
| 2026-04-27 02:40 | 63.69506 | -51.07502 | 10902 ft | 279 kts | 321° |
| 2026-04-27 02:41 | 63.70921 | -51.10397 | 10762 ft | 269 kts | 321° |
| 2026-04-27 02:41 | 63.72283 | -51.13181 | 10625 ft | 259 kts | 321° |
| 2026-04-27 02:41 | 63.73579 | -51.15834 | 10447 ft | 251 kts | 321° |
| 2026-04-27 02:41 | 63.74856 | -51.18453 | 10200 ft | 246 kts | 321° |
| 2026-04-27 02:42 | 63.76114 | -51.21042 | 9932 ft | 243 kts | 321° |
| 2026-04-27 02:42 | 63.77362 | -51.23613 | 9779 ft | 242 kts | 321° |
| 2026-04-27 02:42 | 63.78590 | -51.26139 | 9626 ft | 241 kts | 321° |
| 2026-04-27 02:42 | 63.79834 | -51.28696 | 9475 ft | 241 kts | 321° |
| 2026-04-27 02:43 | 63.81069 | -51.31236 | 9327 ft | 236 kts | 322° |
| 2026-04-27 02:43 | 63.82304 | -51.33602 | 9179 ft | 228 kts | 324° |
| 2026-04-27 02:43 | 63.83523 | -51.35811 | 9031 ft | 221 kts | 325° |
| 2026-04-27 02:43 | 63.84704 | -51.37918 | 8863 ft | 213 kts | 324° |
| 2026-04-27 02:44 | 63.85849 | -51.39971 | 8723 ft | 207 kts | 325° |
| 2026-04-27 02:44 | 63.86962 | -51.41970 | 8577 ft | 201 kts | 325° |
| 2026-04-27 02:44 | 63.88040 | -51.43913 | 8434 ft | 194 kts | 325° |
| 2026-04-27 02:44 | 63.89081 | -51.45797 | 8291 ft | 188 kts | 325° |
| 2026-04-27 02:45 | 63.90088 | -51.47631 | 8083 ft | 183 kts | 325° |
| 2026-04-27 02:45 | 63.91077 | -51.49446 | 7843 ft | 183 kts | 324° |
| 2026-04-27 02:45 | 63.92062 | -51.51246 | 7583 ft | 184 kts | 324° |
| 2026-04-27 02:45 | 63.93055 | -51.53060 | 7330 ft | 183 kts | 324° |
| 2026-04-27 02:46 | 63.94037 | -51.54855 | 7128 ft | 179 kts | 324° |
| 2026-04-27 02:46 | 63.95003 | -51.56625 | 6900 ft | 177 kts | 324° |
| 2026-04-27 02:46 | 63.95950 | -51.58355 | 6652 ft | 173 kts | 324° |
| 2026-04-27 02:46 | 63.96772 | -51.60353 | 6392 ft | 174 kts | 310° |
| 2026-04-27 02:47 | 63.97173 | -51.61939 | 6220 ft | 176 kts | 301° |
| 2026-04-27 02:47 | 63.97695 | -51.65469 | 5847 ft | 177 kts | 295° |
| 2026-04-27 02:47 | 63.98057 | -51.68091 | 5598 ft | 171 kts | 295° |
| 2026-04-27 02:47 | 63.98407 | -51.70624 | 5327 ft | 163 kts | 296° |
| 2026-04-27 02:48 | 63.98635 | -51.72271 | 5120 ft | 159 kts | 296° |
| 2026-04-27 02:48 | 63.98962 | -51.74617 | 4892 ft | 153 kts | 296° |
| 2026-04-27 02:48 | 63.99275 | -51.76850 | 4667 ft | 147 kts | 297° |
| 2026-04-27 02:48 | 63.99748 | -51.78784 | 4430 ft | 134 kts | 319° |
| 2026-04-27 02:49 | 64.00458 | -51.80009 | 4245 ft | 123 kts | 338° |
| 2026-04-27 02:49 | 64.01259 | -51.80489 | 4055 ft | 117 kts | 0° |
| 2026-04-27 02:49 | 64.02023 | -51.79983 | 3888 ft | 115 kts | 10° |
| 2026-04-27 02:49 | 64.02777 | -51.79594 | 3847 ft | 113 kts | 11° |
| 2026-04-27 02:50 | 64.03537 | -51.79123 | 3726 ft | 113 kts | 11° |
| 2026-04-27 02:50 | 64.04294 | -51.78621 | 3576 ft | 113 kts | 12° |
| 2026-04-27 02:50 | 64.05048 | -51.78102 | 3407 ft | 114 kts | 13° |
| 2026-04-27 02:50 | 64.05797 | -51.77576 | 3237 ft | 113 kts | 13° |
| 2026-04-27 02:51 | 64.06543 | -51.77044 | 3065 ft | 112 kts | 14° |
| 2026-04-27 02:51 | 64.07288 | -51.76510 | 2891 ft | 112 kts | 13° |
| 2026-04-27 02:51 | 64.08027 | -51.75977 | 2718 ft | 111 kts | 13° |
| 2026-04-27 02:51 | 64.08765 | -51.75444 | 2541 ft | 112 kts | 14° |
| 2026-04-27 02:52 | 64.09505 | -51.74909 | 2357 ft | 111 kts | 14° |
| 2026-04-27 02:52 | 64.10240 | -51.74376 | 2182 ft | 110 kts | 13° |
| 2026-04-27 02:52 | 64.10969 | -51.73847 | 2007 ft | 110 kts | 14° |
| 2026-04-27 02:52 | 64.11695 | -51.73320 | 1842 ft | 110 kts | 13° |
| 2026-04-27 02:53 | 64.12428 | -51.72787 | 1659 ft | 110 kts | 13° |
| 2026-04-27 02:53 | 64.13161 | -51.72254 | 1489 ft | 112 kts | 14° |
| 2026-04-27 02:53 | 64.13880 | -51.71732 | 1304 ft | 109 kts | 14° |
| 2026-04-27 02:53 | 64.14609 | -51.71201 | 1125 ft | 109 kts | 14° |
| 2026-04-27 02:54 | 64.15342 | -51.70668 | 931 ft | 111 kts | 15° |
| 2026-04-27 02:54 | 64.16069 | -51.70138 | 756 ft | 110 kts | 15° |
| 2026-04-27 02:54 | 64.16791 | -51.69611 | 595 ft | 110 kts | 16° |
| 2026-04-27 02:54 | 64.17521 | -51.69079 | 433 ft | 108 kts | 15° |
| 2026-04-27 02:55 | 64.18239 | -51.68552 | 291 ft | 107 kts | 17° |
| 2026-04-27 02:55 | 64.18846 | -51.68115 | 277 ft | 54 kts | 21° |
| 2026-04-27 02:55 | 64.18983 | -51.67893 | 280 ft | 16 kts | 30° |
| 2026-04-27 02:55 | 64.19075 | -51.67764 | 280 ft | 16 kts | 71° |
| 2026-04-27 02:56 | 64.19065 | -51.67487 | 280 ft | 19 kts | 77° |
| 2026-04-27 02:56 | 64.19137 | -51.67386 | 280 ft | 7 kts | 320° |
| 2026-04-27 02:56 | 64.19135 | -51.67410 | 280 ft | 0 kts | 239° |